sensor_id;sensor_type;location;lat;lon;timestamp;temperature;humidity
12166;DHT22;6146;48.128;11.476;2023-03-21T00:00:35;8.20;99.90
12166;DHT22;6146;48.128;11.476;2023-03-21T00:03:01;8.20;99.90
12166;DHT22;6146;48.128;11.476;2023-03-21T00:05:27;8.20;99.90
12166;DHT22;6146;48.128;11.476;2023-03-21T00:07:52;8.20;99.90
12166;DHT22;6146;48.128;11.476;2023-03-21T00:10:18;8.20;99.90
12166;DHT22;6146;48.128;11.476;2023-03-21T00:12:44;8.30;99.90
12166;DHT22;6146;48.128;11.476;2023-03-21T00:15:11;8.20;99.90
12166;DHT22;6146;48.128;11.476;2023-03-21T00:17:37;8.20;99.90
12166;DHT22;6146;48.128;11.476;2023-03-21T00:20:05;8.20;99.90
12166;DHT22;6146;48.128;11.476;2023-03-21T00:22:34;8.20;99.90
12166;DHT22;6146;48.128;11.476;2023-03-21T00:25:00;8.30;99.90
12166;DHT22;6146;48.128;11.476;2023-03-21T00:27:26;8.30;99.90
12166;DHT22;6146;48.128;11.476;2023-03-21T00:29:52;8.30;99.90
12166;DHT22;6146;48.128;11.476;2023-03-21T00:32:19;8.30;99.90
12166;DHT22;6146;48.128;11.476;2023-03-21T00:34:45;8.30;99.90
12166;DHT22;6146;48.128;11.476;2023-03-21T00:37:11;8.40;99.90
12166;DHT22;6146;48.128;11.476;2023-03-21T00:39:41;8.40;99.90
12166;DHT22;6146;48.128;11.476;2023-03-21T00:42:07;8.40;99.90
12166;DHT22;6146;48.128;11.476;2023-03-21T00:44:32;8.40;99.90
12166;DHT22;6146;48.128;11.476;2023-03-21T00:47:02;8.50;99.90
12166;DHT22;6146;48.128;11.476;2023-03-21T00:49:28;8.50;99.90
12166;DHT22;6146;48.128;11.476;2023-03-21T00:52:02;8.50;99.90
12166;DHT22;6146;48.128;11.476;2023-03-21T00:54:27;8.60;99.90
12166;DHT22;6146;48.128;11.476;2023-03-21T00:56:53;8.60;99.90
12166;DHT22;6146;48.128;11.476;2023-03-21T00:59:19;8.60;99.90
12166;DHT22;6146;48.128;11.476;2023-03-21T01:01:45;8.60;99.90
12166;DHT22;6146;48.128;11.476;2023-03-21T01:04:11;8.60;99.90
12166;DHT22;6146;48.128;11.476;2023-03-21T01:06:40;8.60;99.90
12166;DHT22;6146;48.128;11.476;2023-03-21T01:09:14;8.60;99.90
12166;DHT22;6146;48.128;11.476;2023-03-21T01:11:41;8.60;99.90
12166;DHT22;6146;48.128;11.476;2023-03-21T01:14:07;8.60;99.90
12166;DHT22;6146;48.128;11.476;2023-03-21T01:16:33;8.60;99.90
12166;DHT22;6146;48.128;11.476;2023-03-21T01:18:59;8.60;99.90
12166;DHT22;6146;48.128;11.476;2023-03-21T01:21:25;8.60;99.90
12166;DHT22;6146;48.128;11.476;2023-03-21T01:23:50;8.60;99.90
12166;DHT22;6146;48.128;11.476;2023-03-21T01:26:16;8.60;99.90
12166;DHT22;6146;48.128;11.476;2023-03-21T01:28:42;8.70;99.90
12166;DHT22;6146;48.128;11.476;2023-03-21T01:31:11;8.60;99.90
12166;DHT22;6146;48.128;11.476;2023-03-21T01:33:36;8.50;99.90
12166;DHT22;6146;48.128;11.476;2023-03-21T01:36:03;8.60;99.90
12166;DHT22;6146;48.128;11.476;2023-03-21T01:38:29;8.50;99.90
12166;DHT22;6146;48.128;11.476;2023-03-21T01:40:54;8.50;99.90
12166;DHT22;6146;48.128;11.476;2023-03-21T01:43:38;8.50;99.90
12166;DHT22;6146;48.128;11.476;2023-03-21T01:48:49;8.40;99.90
12166;DHT22;6146;48.128;11.476;2023-03-21T01:51:16;8.50;99.90
12166;DHT22;6146;48.128;11.476;2023-03-21T01:53:42;8.40;99.90
12166;DHT22;6146;48.128;11.476;2023-03-21T01:56:23;8.50;99.90
12166;DHT22;6146;48.128;11.476;2023-03-21T01:58:52;8.40;99.90
12166;DHT22;6146;48.128;11.476;2023-03-21T02:01:22;8.40;99.90
12166;DHT22;6146;48.128;11.476;2023-03-21T03:24:58;8.30;99.90
12166;DHT22;6146;48.128;11.476;2023-03-21T03:27:29;8.20;99.90
12166;DHT22;6146;48.128;11.476;2023-03-21T03:29:58;8.20;99.90
12166;DHT22;6146;48.128;11.476;2023-03-21T03:32:31;8.20;99.90
12166;DHT22;6146;48.128;11.476;2023-03-21T03:34:58;8.20;99.90
12166;DHT22;6146;48.128;11.476;2023-03-21T03:37:27;8.20;99.90
12166;DHT22;6146;48.128;11.476;2023-03-21T03:40:02;8.30;99.90
12166;DHT22;6146;48.128;11.476;2023-03-21T03:42:40;8.30;99.90
12166;DHT22;6146;48.128;11.476;2023-03-21T03:45:09;8.30;99.90
12166;DHT22;6146;48.128;11.476;2023-03-21T03:47:52;8.30;99.90
12166;DHT22;6146;48.128;11.476;2023-03-21T03:50:29;8.30;99.90
12166;DHT22;6146;48.128;11.476;2023-03-21T03:55:43;8.30;99.90
12166;DHT22;6146;48.128;11.476;2023-03-21T03:58:09;8.30;99.90
12166;DHT22;6146;48.128;11.476;2023-03-21T04:00:35;8.40;99.90
12166;DHT22;6146;48.128;11.476;2023-03-21T04:03:01;8.30;99.90
12166;DHT22;6146;48.128;11.476;2023-03-21T04:05:27;8.30;99.90
12166;DHT22;6146;48.128;11.476;2023-03-21T04:07:52;8.30;99.90
12166;DHT22;6146;48.128;11.476;2023-03-21T04:10:19;8.30;99.90
12166;DHT22;6146;48.128;11.476;2023-03-21T04:12:45;8.40;99.90
12166;DHT22;6146;48.128;11.476;2023-03-21T04:15:11;8.40;99.90
12166;DHT22;6146;48.128;11.476;2023-03-21T04:17:37;8.40;99.90
12166;DHT22;6146;48.128;11.476;2023-03-21T04:20:05;8.40;99.90
12166;DHT22;6146;48.128;11.476;2023-03-21T04:22:31;8.40;99.90
12166;DHT22;6146;48.128;11.476;2023-03-21T04:24:57;8.40;99.90
12166;DHT22;6146;48.128;11.476;2023-03-21T04:27:23;8.30;99.90
12166;DHT22;6146;48.128;11.476;2023-03-21T04:29:49;8.30;99.90
12166;DHT22;6146;48.128;11.476;2023-03-21T04:32:14;8.30;99.90
12166;DHT22;6146;48.128;11.476;2023-03-21T04:34:44;8.30;99.90
12166;DHT22;6146;48.128;11.476;2023-03-21T04:37:17;8.30;99.90
12166;DHT22;6146;48.128;11.476;2023-03-21T04:39:44;8.30;99.90
12166;DHT22;6146;48.128;11.476;2023-03-21T04:42:13;8.30;99.90
12166;DHT22;6146;48.128;11.476;2023-03-21T04:44:40;8.20;99.90
12166;DHT22;6146;48.128;11.476;2023-03-21T04:47:06;8.20;99.90
12166;DHT22;6146;48.128;11.476;2023-03-21T04:49:32;8.20;99.90
12166;DHT22;6146;48.128;11.476;2023-03-21T04:51:58;8.20;99.90
12166;DHT22;6146;48.128;11.476;2023-03-21T04:54:24;8.20;99.90
12166;DHT22;6146;48.128;11.476;2023-03-21T04:56:50;8.20;99.90
12166;DHT22;6146;48.128;11.476;2023-03-21T04:59:17;8.20;99.90
12166;DHT22;6146;48.128;11.476;2023-03-21T05:01:43;8.20;99.90
12166;DHT22;6146;48.128;11.476;2023-03-21T05:04:10;8.10;99.90
12166;DHT22;6146;48.128;11.476;2023-03-21T05:06:36;8.10;99.90
12166;DHT22;6146;48.128;11.476;2023-03-21T05:09:03;8.10;99.90
12166;DHT22;6146;48.128;11.476;2023-03-21T05:11:34;8.00;99.90
12166;DHT22;6146;48.128;11.476;2023-03-21T05:14:03;8.10;99.90
12166;DHT22;6146;48.128;11.476;2023-03-21T05:16:28;8.10;99.90
12166;DHT22;6146;48.128;11.476;2023-03-21T05:21:22;8.10;99.90
12166;DHT22;6146;48.128;11.476;2023-03-21T05:23:47;8.10;99.90
12166;DHT22;6146;48.128;11.476;2023-03-21T05:26:19;8.20;99.90
12166;DHT22;6146;48.128;11.476;2023-03-21T05:28:45;8.20;99.90
12166;DHT22;6146;48.128;11.476;2023-03-21T05:31:13;8.20;99.90
12166;DHT22;6146;48.128;11.476;2023-03-21T05:33:41;8.10;99.90
12166;DHT22;6146;48.128;11.476;2023-03-21T05:36:07;8.10;99.90
12166;DHT22;6146;48.128;11.476;2023-03-21T05:38:33;8.20;99.90
12166;DHT22;6146;48.128;11.476;2023-03-21T05:40:59;8.20;99.90
12166;DHT22;6146;48.128;11.476;2023-03-21T05:43:25;8.30;99.90
12166;DHT22;6146;48.128;11.476;2023-03-21T05:45:50;8.40;99.90
12166;DHT22;6146;48.128;11.476;2023-03-21T05:48:16;8.40;99.90
12166;DHT22;6146;48.128;11.476;2023-03-21T05:50:42;8.50;99.90
12166;DHT22;6146;48.128;11.476;2023-03-21T05:53:07;8.50;99.90
12166;DHT22;6146;48.128;11.476;2023-03-21T05:55:33;8.60;99.90
12166;DHT22;6146;48.128;11.476;2023-03-21T05:57:58;8.60;99.90
12166;DHT22;6146;48.128;11.476;2023-03-21T06:00:24;8.60;99.90
12166;DHT22;6146;48.128;11.476;2023-03-21T06:02:50;8.70;99.90
12166;DHT22;6146;48.128;11.476;2023-03-21T06:05:16;8.70;99.90
12166;DHT22;6146;48.128;11.476;2023-03-21T06:07:41;8.80;99.90
12166;DHT22;6146;48.128;11.476;2023-03-21T06:10:07;8.80;99.90
12166;DHT22;6146;48.128;11.476;2023-03-21T06:12:33;9.00;99.90
12166;DHT22;6146;48.128;11.476;2023-03-21T06:14:58;9.10;99.90
12166;DHT22;6146;48.128;11.476;2023-03-21T06:17:25;9.20;99.90
12166;DHT22;6146;48.128;11.476;2023-03-21T06:19:50;9.30;99.90
12166;DHT22;6146;48.128;11.476;2023-03-21T06:22:16;9.40;99.90
12166;DHT22;6146;48.128;11.476;2023-03-21T06:24:42;9.40;99.90
12166;DHT22;6146;48.128;11.476;2023-03-21T06:27:07;9.50;99.90
12166;DHT22;6146;48.128;11.476;2023-03-21T06:29:33;9.50;99.90
12166;DHT22;6146;48.128;11.476;2023-03-21T06:31:58;9.60;99.90
12166;DHT22;6146;48.128;11.476;2023-03-21T06:34:24;9.70;99.90
12166;DHT22;6146;48.128;11.476;2023-03-21T06:36:50;9.70;99.90
12166;DHT22;6146;48.128;11.476;2023-03-21T06:39:19;9.80;99.90
12166;DHT22;6146;48.128;11.476;2023-03-21T06:41:45;9.80;99.90
12166;DHT22;6146;48.128;11.476;2023-03-21T06:44:11;9.90;99.90
12166;DHT22;6146;48.128;11.476;2023-03-21T06:46:36;9.90;99.90
12166;DHT22;6146;48.128;11.476;2023-03-21T06:49:02;9.90;99.90
12166;DHT22;6146;48.128;11.476;2023-03-21T06:51:27;9.90;99.90
12166;DHT22;6146;48.128;11.476;2023-03-21T06:53:53;9.90;99.90
12166;DHT22;6146;48.128;11.476;2023-03-21T06:56:19;10.00;99.90
12166;DHT22;6146;48.128;11.476;2023-03-21T06:58:45;10.00;99.90
12166;DHT22;6146;48.128;11.476;2023-03-21T07:01:11;10.10;99.90
12166;DHT22;6146;48.128;11.476;2023-03-21T07:03:36;10.20;99.90
12166;DHT22;6146;48.128;11.476;2023-03-21T07:06:07;10.30;99.90
12166;DHT22;6146;48.128;11.476;2023-03-21T07:08:39;10.40;99.90
12166;DHT22;6146;48.128;11.476;2023-03-21T07:11:05;10.60;99.90
12166;DHT22;6146;48.128;11.476;2023-03-21T07:13:31;10.70;99.90
12166;DHT22;6146;48.128;11.476;2023-03-21T07:15:57;10.80;99.90
12166;DHT22;6146;48.128;11.476;2023-03-21T07:18:23;10.90;99.90
12166;DHT22;6146;48.128;11.476;2023-03-21T07:20:50;11.00;99.90
12166;DHT22;6146;48.128;11.476;2023-03-21T07:23:20;11.10;99.90
12166;DHT22;6146;48.128;11.476;2023-03-21T07:25:50;11.10;99.90
12166;DHT22;6146;48.128;11.476;2023-03-21T07:28:16;11.10;99.90
12166;DHT22;6146;48.128;11.476;2023-03-21T07:30:43;11.20;99.90
12166;DHT22;6146;48.128;11.476;2023-03-21T07:33:09;11.50;99.90
12166;DHT22;6146;48.128;11.476;2023-03-21T07:35:35;11.30;99.90
12166;DHT22;6146;48.128;11.476;2023-03-21T07:38:03;11.40;99.90
12166;DHT22;6146;48.128;11.476;2023-03-21T07:40:29;11.50;99.90
12166;DHT22;6146;48.128;11.476;2023-03-21T07:42:55;11.50;99.90
12166;DHT22;6146;48.128;11.476;2023-03-21T07:45:20;11.60;99.90
12166;DHT22;6146;48.128;11.476;2023-03-21T07:47:48;11.60;99.90
12166;DHT22;6146;48.128;11.476;2023-03-21T07:50:14;11.50;99.90
12166;DHT22;6146;48.128;11.476;2023-03-21T07:52:40;11.50;99.90
12166;DHT22;6146;48.128;11.476;2023-03-21T07:55:06;11.70;99.90
12166;DHT22;6146;48.128;11.476;2023-03-21T07:57:32;11.80;99.90
12166;DHT22;6146;48.128;11.476;2023-03-21T07:59:58;12.00;99.90
12166;DHT22;6146;48.128;11.476;2023-03-21T08:02:24;12.20;99.90
12166;DHT22;6146;48.128;11.476;2023-03-21T08:04:49;12.30;99.90
12166;DHT22;6146;48.128;11.476;2023-03-21T08:07:15;12.40;99.90
12166;DHT22;6146;48.128;11.476;2023-03-21T08:09:42;12.40;99.90
12166;DHT22;6146;48.128;11.476;2023-03-21T08:12:08;12.30;99.90
12166;DHT22;6146;48.128;11.476;2023-03-21T08:14:34;12.20;99.90
12166;DHT22;6146;48.128;11.476;2023-03-21T08:17:02;12.30;99.90
12166;DHT22;6146;48.128;11.476;2023-03-21T08:19:28;12.50;99.90
12166;DHT22;6146;48.128;11.476;2023-03-21T08:21:53;12.50;99.90
12166;DHT22;6146;48.128;11.476;2023-03-21T08:24:19;12.70;99.90
12166;DHT22;6146;48.128;11.476;2023-03-21T08:26:45;12.90;99.90
12166;DHT22;6146;48.128;11.476;2023-03-21T08:29:13;13.10;99.90
12166;DHT22;6146;48.128;11.476;2023-03-21T08:31:39;13.20;99.90
12166;DHT22;6146;48.128;11.476;2023-03-21T08:34:06;13.40;99.90
12166;DHT22;6146;48.128;11.476;2023-03-21T08:36:32;13.30;99.90
12166;DHT22;6146;48.128;11.476;2023-03-21T08:38:58;13.40;99.90
12166;DHT22;6146;48.128;11.476;2023-03-21T08:41:36;13.50;99.90
12166;DHT22;6146;48.128;11.476;2023-03-21T08:44:03;13.60;99.90
12166;DHT22;6146;48.128;11.476;2023-03-21T08:46:29;13.60;99.90
12166;DHT22;6146;48.128;11.476;2023-03-21T08:48:54;13.70;99.90
12166;DHT22;6146;48.128;11.476;2023-03-21T08:51:20;13.80;99.90
12166;DHT22;6146;48.128;11.476;2023-03-21T08:53:46;13.70;99.90
12166;DHT22;6146;48.128;11.476;2023-03-21T08:56:13;13.60;99.90
12166;DHT22;6146;48.128;11.476;2023-03-21T08:58:39;13.70;99.90
12166;DHT22;6146;48.128;11.476;2023-03-21T09:01:05;13.80;99.90
12166;DHT22;6146;48.128;11.476;2023-03-21T09:03:36;13.90;99.90
12166;DHT22;6146;48.128;11.476;2023-03-21T09:06:02;14.20;99.90
12166;DHT22;6146;48.128;11.476;2023-03-21T09:08:28;14.20;99.90
12166;DHT22;6146;48.128;11.476;2023-03-21T09:10:54;14.10;99.90
12166;DHT22;6146;48.128;11.476;2023-03-21T09:13:21;13.90;99.90
12166;DHT22;6146;48.128;11.476;2023-03-21T09:15:46;13.60;99.90
12166;DHT22;6146;48.128;11.476;2023-03-21T09:18:12;13.70;99.90
12166;DHT22;6146;48.128;11.476;2023-03-21T09:20:41;14.00;99.90
12166;DHT22;6146;48.128;11.476;2023-03-21T09:23:08;14.20;99.90
12166;DHT22;6146;48.128;11.476;2023-03-21T09:25:35;14.30;99.90
12166;DHT22;6146;48.128;11.476;2023-03-21T09:28:01;14.10;99.90
12166;DHT22;6146;48.128;11.476;2023-03-21T09:30:30;14.30;99.90
12166;DHT22;6146;48.128;11.476;2023-03-21T09:32:58;14.60;99.90
12166;DHT22;6146;48.128;11.476;2023-03-21T09:35:25;14.80;99.90
12166;DHT22;6146;48.128;11.476;2023-03-21T09:37:51;14.80;99.90
12166;DHT22;6146;48.128;11.476;2023-03-21T09:40:20;15.10;99.90
12166;DHT22;6146;48.128;11.476;2023-03-21T09:43:09;15.30;99.90
12166;DHT22;6146;48.128;11.476;2023-03-21T09:48:16;15.60;99.90
12166;DHT22;6146;48.128;11.476;2023-03-21T09:50:46;15.60;99.90
12166;DHT22;6146;48.128;11.476;2023-03-21T09:53:28;15.50;99.90
12166;DHT22;6146;48.128;11.476;2023-03-21T09:55:56;15.40;99.90
12166;DHT22;6146;48.128;11.476;2023-03-21T10:01:04;15.30;99.90
12166;DHT22;6146;48.128;11.476;2023-03-21T10:03:33;15.20;99.90
12166;DHT22;6146;48.128;11.476;2023-03-21T10:06:09;15.30;99.90
12166;DHT22;6146;48.128;11.476;2023-03-21T10:08:39;15.70;99.90
12166;DHT22;6146;48.128;11.476;2023-03-21T10:13:41;16.80;99.90
12166;DHT22;6146;48.128;11.476;2023-03-21T10:16:16;17.10;99.20
12166;DHT22;6146;48.128;11.476;2023-03-21T10:18:44;17.30;97.00
12166;DHT22;6146;48.128;11.476;2023-03-21T10:21:24;17.60;97.20
12166;DHT22;6146;48.128;11.476;2023-03-21T10:23:53;18.20;96.50
12166;DHT22;6146;48.128;11.476;2023-03-21T10:26:24;18.30;94.60
12166;DHT22;6146;48.128;11.476;2023-03-21T10:28:54;18.10;94.50
12166;DHT22;6146;48.128;11.476;2023-03-21T10:31:22;18.20;93.90
12166;DHT22;6146;48.128;11.476;2023-03-21T10:33:55;18.20;94.00
12166;DHT22;6146;48.128;11.476;2023-03-21T10:36:28;18.00;94.50
12166;DHT22;6146;48.128;11.476;2023-03-21T10:39:00;18.20;93.70
12166;DHT22;6146;48.128;11.476;2023-03-21T10:41:26;18.40;93.40
12166;DHT22;6146;48.128;11.476;2023-03-21T10:44:10;18.50;92.50
12166;DHT22;6146;48.128;11.476;2023-03-21T10:46:52;18.50;92.00
12166;DHT22;6146;48.128;11.476;2023-03-21T10:49:18;18.70;92.00
12166;DHT22;6146;48.128;11.476;2023-03-21T10:51:48;19.20;91.50
12166;DHT22;6146;48.128;11.476;2023-03-21T10:54:18;19.30;91.00
12166;DHT22;6146;48.128;11.476;2023-03-21T10:56:56;19.60;91.30
12166;DHT22;6146;48.128;11.476;2023-03-21T10:59:24;20.10;88.00
12166;DHT22;6146;48.128;11.476;2023-03-21T11:01:51;20.60;85.70
12166;DHT22;6146;48.128;11.476;2023-03-21T11:04:28;20.80;85.60
12166;DHT22;6146;48.128;11.476;2023-03-21T11:06:58;22.10;80.50
12166;DHT22;6146;48.128;11.476;2023-03-21T11:09:49;23.00;77.70
12166;DHT22;6146;48.128;11.476;2023-03-21T11:12:15;24.20;68.10
12166;DHT22;6146;48.128;11.476;2023-03-21T11:14:47;24.60;65.20
12166;DHT22;6146;48.128;11.476;2023-03-21T11:19:47;23.20;64.30
12166;DHT22;6146;48.128;11.476;2023-03-21T11:22:14;22.80;63.70
12166;DHT22;6146;48.128;11.476;2023-03-21T11:24:41;21.90;67.00
12166;DHT22;6146;48.128;11.476;2023-03-21T11:27:08;22.10;66.20
12166;DHT22;6146;48.128;11.476;2023-03-21T11:29:38;22.40;68.10
12166;DHT22;6146;48.128;11.476;2023-03-21T11:32:12;23.60;61.70
12166;DHT22;6146;48.128;11.476;2023-03-21T11:34:46;24.90;59.70
12166;DHT22;6146;48.128;11.476;2023-03-21T11:37:25;25.50;55.70
12166;DHT22;6146;48.128;11.476;2023-03-21T11:40:03;26.10;53.70
12166;DHT22;6146;48.128;11.476;2023-03-21T11:42:31;26.00;52.50
12166;DHT22;6146;48.128;11.476;2023-03-21T11:45:14;26.00;51.90
12166;DHT22;6146;48.128;11.476;2023-03-21T11:47:41;25.90;52.10
12166;DHT22;6146;48.128;11.476;2023-03-21T11:50:16;26.90;50.70
12166;DHT22;6146;48.128;11.476;2023-03-21T11:52:50;27.40;48.90
12166;DHT22;6146;48.128;11.476;2023-03-21T11:58:30;27.40;46.90
12166;DHT22;6146;48.128;11.476;2023-03-21T12:04:20;28.90;45.00
12166;DHT22;6146;48.128;11.476;2023-03-21T12:06:49;30.40;42.00
12166;DHT22;6146;48.128;11.476;2023-03-21T12:14:46;31.20;36.10
12166;DHT22;6146;48.128;11.476;2023-03-21T12:17:42;31.50;36.00
12166;DHT22;6146;48.128;11.476;2023-03-21T12:26:05;29.30;37.30
12166;DHT22;6146;48.128;11.476;2023-03-21T12:28:45;29.10;38.90
12166;DHT22;6146;48.128;11.476;2023-03-21T12:39:39;29.40;36.90
12166;DHT22;6146;48.128;11.476;2023-03-21T12:42:31;29.30;36.90
12166;DHT22;6146;48.128;11.476;2023-03-21T12:45:23;29.80;36.40
12166;DHT22;6146;48.128;11.476;2023-03-21T12:47:54;28.20;36.80
12166;DHT22;6146;48.128;11.476;2023-03-21T12:50:26;26.00;40.80
12166;DHT22;6146;48.128;11.476;2023-03-21T12:53:00;24.70;43.70
12166;DHT22;6146;48.128;11.476;2023-03-21T12:55:31;24.70;42.40
12166;DHT22;6146;48.128;11.476;2023-03-21T12:58:05;23.80;44.40
12166;DHT22;6146;48.128;11.476;2023-03-21T13:00:43;23.20;45.80
12166;DHT22;6146;48.128;11.476;2023-03-21T13:03:13;23.40;46.50
12166;DHT22;6146;48.128;11.476;2023-03-21T13:05:49;23.80;45.40
12166;DHT22;6146;48.128;11.476;2023-03-21T13:08:43;23.80;46.40
12166;DHT22;6146;48.128;11.476;2023-03-21T13:11:14;23.80;44.80
12166;DHT22;6146;48.128;11.476;2023-03-21T13:13:52;23.40;47.80
12166;DHT22;6146;48.128;11.476;2023-03-21T13:16:27;22.70;47.40
12166;DHT22;6146;48.128;11.476;2023-03-21T13:22:00;22.50;48.50
12166;DHT22;6146;48.128;11.476;2023-03-21T13:24:46;22.10;48.20
12166;DHT22;6146;48.128;11.476;2023-03-21T13:27:34;21.90;47.80
12166;DHT22;6146;48.128;11.476;2023-03-21T13:32:41;21.30;49.20
12166;DHT22;6146;48.128;11.476;2023-03-21T13:38:20;21.50;51.30
12166;DHT22;6146;48.128;11.476;2023-03-21T13:46:33;21.90;50.50
12166;DHT22;6146;48.128;11.476;2023-03-21T13:49:01;21.90;50.70
12166;DHT22;6146;48.128;11.476;2023-03-21T13:54:26;21.70;51.00
12166;DHT22;6146;48.128;11.476;2023-03-21T13:56:55;21.70;50.50
12166;DHT22;6146;48.128;11.476;2023-03-21T14:02:32;21.80;49.30
12166;DHT22;6146;48.128;11.476;2023-03-21T14:05:04;21.90;49.60
12166;DHT22;6146;48.128;11.476;2023-03-21T14:07:39;22.00;48.70
12166;DHT22;6146;48.128;11.476;2023-03-21T14:10:16;22.20;51.20
12166;DHT22;6146;48.128;11.476;2023-03-21T14:12:43;21.80;49.20
12166;DHT22;6146;48.128;11.476;2023-03-21T14:17:50;20.90;50.50
12166;DHT22;6146;48.128;11.476;2023-03-21T14:20:23;20.40;52.00
12166;DHT22;6146;48.128;11.476;2023-03-21T14:22:49;20.40;52.50
12166;DHT22;6146;48.128;11.476;2023-03-21T14:25:17;20.10;51.50
12166;DHT22;6146;48.128;11.476;2023-03-21T14:27:48;20.10;52.30
12166;DHT22;6146;48.128;11.476;2023-03-21T14:30:26;20.20;52.00
12166;DHT22;6146;48.128;11.476;2023-03-21T14:32:57;19.90;53.30
12166;DHT22;6146;48.128;11.476;2023-03-21T14:35:26;19.50;55.30
12166;DHT22;6146;48.128;11.476;2023-03-21T14:37:53;19.10;55.70
12166;DHT22;6146;48.128;11.476;2023-03-21T14:40:24;18.90;56.50
12166;DHT22;6146;48.128;11.476;2023-03-21T14:42:51;18.80;58.00
12166;DHT22;6146;48.128;11.476;2023-03-21T14:45:23;18.50;57.60
12166;DHT22;6146;48.128;11.476;2023-03-21T14:48:04;18.20;57.60
12166;DHT22;6146;48.128;11.476;2023-03-21T14:52:55;17.80;58.80
12166;DHT22;6146;48.128;11.476;2023-03-21T14:55:22;17.70;60.50
12166;DHT22;6146;48.128;11.476;2023-03-21T14:57:48;17.70;61.90
12166;DHT22;6146;48.128;11.476;2023-03-21T15:00:22;17.60;62.20
12166;DHT22;6146;48.128;11.476;2023-03-21T15:02:47;17.50;62.40
12166;DHT22;6146;48.128;11.476;2023-03-21T15:05:24;17.50;63.10
12166;DHT22;6146;48.128;11.476;2023-03-21T15:07:55;17.50;63.00
12166;DHT22;6146;48.128;11.476;2023-03-21T15:10:22;17.40;63.30
12166;DHT22;6146;48.128;11.476;2023-03-21T15:13:00;17.40;62.70
12166;DHT22;6146;48.128;11.476;2023-03-21T15:15:28;17.50;62.60
12166;DHT22;6146;48.128;11.476;2023-03-21T15:17:59;17.40;63.70
12166;DHT22;6146;48.128;11.476;2023-03-21T15:20:31;17.30;64.30
12166;DHT22;6146;48.128;11.476;2023-03-21T15:23:02;17.30;65.50
12166;DHT22;6146;48.128;11.476;2023-03-21T15:25:32;17.20;65.50
12166;DHT22;6146;48.128;11.476;2023-03-21T15:27:59;17.20;66.20
12166;DHT22;6146;48.128;11.476;2023-03-21T15:30:29;17.10;67.70
12166;DHT22;6146;48.128;11.476;2023-03-21T15:32:56;17.00;66.20
12166;DHT22;6146;48.128;11.476;2023-03-21T15:38:03;17.10;66.90
12166;DHT22;6146;48.128;11.476;2023-03-21T15:40:31;17.10;67.30
12166;DHT22;6146;48.128;11.476;2023-03-21T15:43:23;17.20;68.10
12166;DHT22;6146;48.128;11.476;2023-03-21T15:45:55;17.30;67.80
12166;DHT22;6146;48.128;11.476;2023-03-21T15:48:26;17.30;67.60
12166;DHT22;6146;48.128;11.476;2023-03-21T15:51:00;17.20;67.20
12166;DHT22;6146;48.128;11.476;2023-03-21T15:53:27;17.10;68.00
12166;DHT22;6146;48.128;11.476;2023-03-21T15:55:56;17.00;69.10
12166;DHT22;6146;48.128;11.476;2023-03-21T15:58:31;16.70;69.50
12166;DHT22;6146;48.128;11.476;2023-03-21T16:01:02;16.60;70.40
12166;DHT22;6146;48.128;11.476;2023-03-21T16:03:31;16.50;68.90
12166;DHT22;6146;48.128;11.476;2023-03-21T16:08:48;16.40;70.90
12166;DHT22;6146;48.128;11.476;2023-03-21T16:11:28;16.40;72.50
12166;DHT22;6146;48.128;11.476;2023-03-21T16:14:01;16.20;73.30
12166;DHT22;6146;48.128;11.476;2023-03-21T16:16:28;16.20;73.70
12166;DHT22;6146;48.128;11.476;2023-03-21T16:18:55;16.20;74.60
12166;DHT22;6146;48.128;11.476;2023-03-21T16:21:23;16.20;74.60
12166;DHT22;6146;48.128;11.476;2023-03-21T16:23:50;16.00;74.10
12166;DHT22;6146;48.128;11.476;2023-03-21T16:26:22;15.90;74.30
12166;DHT22;6146;48.128;11.476;2023-03-21T16:28:48;15.80;74.60
12166;DHT22;6146;48.128;11.476;2023-03-21T16:31:16;15.70;75.10
12166;DHT22;6146;48.128;11.476;2023-03-21T16:33:43;15.60;75.40
12166;DHT22;6146;48.128;11.476;2023-03-21T16:36:31;15.60;76.10
12166;DHT22;6146;48.128;11.476;2023-03-21T16:38:57;15.50;77.70
12166;DHT22;6146;48.128;11.476;2023-03-21T16:41:24;15.50;76.90
12166;DHT22;6146;48.128;11.476;2023-03-21T16:43:50;15.40;78.30
12166;DHT22;6146;48.128;11.476;2023-03-21T16:46:23;15.40;79.10
12166;DHT22;6146;48.128;11.476;2023-03-21T16:48:51;15.30;79.20
12166;DHT22;6146;48.128;11.476;2023-03-21T16:51:23;15.30;79.40
12166;DHT22;6146;48.128;11.476;2023-03-21T16:53:52;15.20;79.20
12166;DHT22;6146;48.128;11.476;2023-03-21T16:56:24;15.10;79.40
12166;DHT22;6146;48.128;11.476;2023-03-21T16:58:54;15.10;80.00
12166;DHT22;6146;48.128;11.476;2023-03-21T17:01:21;15.10;80.70
12166;DHT22;6146;48.128;11.476;2023-03-21T17:03:51;15.10;81.70
12166;DHT22;6146;48.128;11.476;2023-03-21T17:06:22;15.00;81.70
12166;DHT22;6146;48.128;11.476;2023-03-21T17:08:50;14.90;82.50
12166;DHT22;6146;48.128;11.476;2023-03-21T17:11:17;14.80;83.20
12166;DHT22;6146;48.128;11.476;2023-03-21T17:13:45;14.70;83.90
12166;DHT22;6146;48.128;11.476;2023-03-21T17:16:12;14.60;83.70
12166;DHT22;6146;48.128;11.476;2023-03-21T17:18:39;14.60;84.40
12166;DHT22;6146;48.128;11.476;2023-03-21T17:21:13;14.50;84.30
12166;DHT22;6146;48.128;11.476;2023-03-21T17:23:39;14.40;83.90
12166;DHT22;6146;48.128;11.476;2023-03-21T17:26:04;14.40;84.70
12166;DHT22;6146;48.128;11.476;2023-03-21T17:28:34;14.30;84.30
12166;DHT22;6146;48.128;11.476;2023-03-21T17:31:00;14.30;84.70
12166;DHT22;6146;48.128;11.476;2023-03-21T17:33:25;14.20;85.40
12166;DHT22;6146;48.128;11.476;2023-03-21T17:35:51;14.20;85.40
12166;DHT22;6146;48.128;11.476;2023-03-21T17:38:16;14.10;85.50
12166;DHT22;6146;48.128;11.476;2023-03-21T17:40:42;14.10;85.90
12166;DHT22;6146;48.128;11.476;2023-03-21T17:43:17;14.00;86.30
12166;DHT22;6146;48.128;11.476;2023-03-21T17:45:43;14.00;86.80
12166;DHT22;6146;48.128;11.476;2023-03-21T17:48:09;13.90;87.10
12166;DHT22;6146;48.128;11.476;2023-03-21T17:50:35;13.90;88.20
12166;DHT22;6146;48.128;11.476;2023-03-21T17:53:07;13.80;88.00
12166;DHT22;6146;48.128;11.476;2023-03-21T17:55:34;13.80;88.70
12166;DHT22;6146;48.128;11.476;2023-03-21T17:58:00;13.70;89.10
12166;DHT22;6146;48.128;11.476;2023-03-21T18:00:28;13.70;89.80
12166;DHT22;6146;48.128;11.476;2023-03-21T18:02:55;13.60;90.30
12166;DHT22;6146;48.128;11.476;2023-03-21T18:05:22;13.50;90.70
12166;DHT22;6146;48.128;11.476;2023-03-21T18:07:50;13.50;91.00
12166;DHT22;6146;48.128;11.476;2023-03-21T18:10:22;13.40;91.40
12166;DHT22;6146;48.128;11.476;2023-03-21T18:12:47;13.30;91.70
12166;DHT22;6146;48.128;11.476;2023-03-21T18:15:17;13.20;91.80
12166;DHT22;6146;48.128;11.476;2023-03-21T18:17:43;13.20;92.10
12166;DHT22;6146;48.128;11.476;2023-03-21T18:20:14;13.20;92.20
12166;DHT22;6146;48.128;11.476;2023-03-21T18:22:42;13.10;92.50